Time;durP1;ratioP1;P1;durP2;ratioP2;P2;SDS_P1;SDS_P2;PMS_P1;PMS_P2;Temp;Humidity;BMP_temperature;BMP_pressure;BME280_temperature;BME280_humidity;BME280_pressure;Samples;Min_cycle;Max_cycle;Signal;HPM_P1;HPM_P2
2021/06/08 00:02:03;;;;;;;15.48;10.07;;;;;;;;;;143731;569;45020;-64
2021/06/08 00:04:30;;;;;;;17.73;10.57;;;;;;;;;;143734;570;45021;-65
2021/06/08 00:06:57;;;;;;;17.08;10.63;;;;;;;;;;143729;635;46020;-64
2021/06/08 00:09:24;;;;;;;12.23;7.95;;;;;;;;;;143730;610;46012;-65
2021/06/08 00:11:51;;;;;;;11.30;8.85;;;;;;;;;;143730;625;46012;-65
2021/06/08 00:14:18;;;;;;;19.65;9.90;;;;;;;;;;143733;616;46020;-65
2021/06/08 00:16:45;;;;;;;15.25;9.55;;;;;;;;;;143729;569;46022;-64
2021/06/08 00:19:12;;;;;;;21.80;9.55;;;;;;;;;;143728;605;46020;-65
2021/06/08 00:21:39;;;;;;;13.15;8.93;;;;;;;;;;143731;606;45020;-65
2021/06/08 00:24:06;;;;;;;11.70;8.88;;;;;;;;;;143731;582;46020;-65
2021/06/08 00:26:33;;;;;;;12.02;8.55;;;;;;;;;;143729;610;46021;-64
2021/06/08 00:29:01;;;;;;;15.82;8.80;;;;;;;;;;143726;580;46020;-64
2021/06/08 00:31:28;;;;;;;9.90;8.35;;;;;;;;;;143730;591;45021;-65
2021/06/08 00:33:55;;;;;;;9.93;7.82;;;;;;;;;;143734;590;45027;-65
2021/06/08 00:36:22;;;;;;;15.23;9.55;;;;;;;;;;143729;645;46020;-65
2021/06/08 00:38:49;;;;;;;22.23;9.80;;;;;;;;;;143729;635;46012;-64
2021/06/08 00:41:16;;;;;;;12.93;8.07;;;;;;;;;;143727;579;46014;-64
2021/06/08 00:43:43;;;;;;;13.23;7.87;;;;;;;;;;143731;599;46012;-64
2021/06/08 00:46:10;;;;;;;10.90;7.75;;;;;;;;;;143729;578;46020;-64
2021/06/08 00:48:37;;;;;;;12.32;8.80;;;;;;;;;;143728;622;46021;-65
2021/06/08 00:51:05;;;;;;;14.98;8.52;;;;;;;;;;143731;566;45033;-65
2021/06/08 00:53:32;;;;;;;10.50;7.60;;;;;;;;;;143732;566;46020;-65
2021/06/08 00:55:59;;;;;;;16.80;9.00;;;;;;;;;;143729;568;46021;-64
2021/06/08 00:58:26;;;;;;;13.27;7.65;;;;;;;;;;143728;623;46020;-64
2021/06/08 01:00:53;;;;;;;12.80;7.53;;;;;;;;;;143731;576;46012;-65
2021/06/08 01:03:20;;;;;;;8.70;6.93;;;;;;;;;;143732;631;46012;-66
2021/06/08 01:05:47;;;;;;;11.10;7.20;;;;;;;;;;143728;576;46023;-66
2021/06/08 01:08:14;;;;;;;14.60;9.30;;;;;;;;;;143728;574;46020;-65
2021/06/08 01:10:41;;;;;;;12.80;7.35;;;;;;;;;;143731;611;45025;-65
2021/06/08 01:13:08;;;;;;;14.27;9.68;;;;;;;;;;143733;613;45020;-66
2021/06/08 01:15:35;;;;;;;13.15;8.35;;;;;;;;;;143726;646;47020;-65
2021/06/08 01:18:03;;;;;;;9.32;7.65;;;;;;;;;;143726;598;46021;-65
2021/06/08 01:20:31;;;;;;;9.40;7.82;;;;;;;;;;143724;626;46020;-66
2021/06/08 01:22:58;;;;;;;17.83;9.73;;;;;;;;;;143731;632;46020;-64
2021/06/08 01:25:25;;;;;;;14.68;8.85;;;;;;;;;;143727;584;46021;-65
2021/06/08 01:27:54;;;;;;;9.48;7.37;;;;;;;;;;143726;598;46020;-65
2021/06/08 01:30:25;;;;;;;9.93;7.12;;;;;;;;;;143728;633;46012;-65
2021/06/08 01:32:53;;;;;;;13.90;8.30;;;;;;;;;;143730;577;46013;-65
2021/06/08 01:35:21;;;;;;;20.35;9.85;;;;;;;;;;143727;587;46020;-64
2021/06/08 01:37:49;;;;;;;8.10;7.20;;;;;;;;;;143726;577;46020;-64
2021/06/08 01:40:18;;;;;;;11.63;8.15;;;;;;;;;;143728;614;46013;-64
2021/06/08 01:42:48;;;;;;;9.25;7.85;;;;;;;;;;143731;662;46020;-65
2021/06/08 01:45:16;;;;;;;15.50;8.73;;;;;;;;;;143726;611;46046;-65
2021/06/08 01:47:43;;;;;;;12.20;7.68;;;;;;;;;;143728;578;46013;-65
2021/06/08 01:50:10;;;;;;;12.23;9.50;;;;;;;;;;143727;586;46012;-65
2021/06/08 01:52:59;;;;;;;15.50;9.38;;;;;;;;;;143731;569;46012;-64
2021/06/08 01:55:34;;;;;;;13.73;9.20;;;;;;;;;;143727;566;46022;-65
2021/06/08 01:58:15;;;;;;;14.32;9.05;;;;;;;;;;143727;569;46012;-64
2021/06/08 02:01:00;;;;;;;16.60;8.70;;;;;;;;;;143726;594;46020;-65
2021/06/08 02:03:41;;;;;;;11.23;7.97;;;;;;;;;;143731;605;46021;-65
2021/06/08 02:06:27;;;;;;;16.00;7.40;;;;;;;;;;143727;641;46020;-65
2021/06/08 02:09:18;;;;;;;10.88;7.55;;;;;;;;;;143726;580;46021;-65
2021/06/08 02:12:00;;;;;;;12.10;8.80;;;;;;;;;;143726;564;46012;-64
2021/06/08 02:14:47;;;;;;;18.75;8.30;;;;;;;;;;143732;575;45020;-65
2021/06/08 02:17:23;;;;;;;11.23;7.30;;;;;;;;;;143727;570;46022;-65
2021/06/08 02:19:55;;;;;;;12.70;8.23;;;;;;;;;;143726;570;46020;-65
2021/06/08 02:22:25;;;;;;;13.93;7.57;;;;;;;;;;143726;597;46012;-65
2021/06/08 02:24:53;;;;;;;13.65;7.60;;;;;;;;;;143732;585;45021;-64
2021/06/08 02:27:24;;;;;;;16.95;7.97;;;;;;;;;;143727;605;46020;-65
2021/06/08 02:29:54;;;;;;;9.68;7.40;;;;;;;;;;143726;646;46027;-65
2021/06/08 02:32:22;;;;;;;12.23;7.37;;;;;;;;;;143725;586;48019;-64
2021/06/08 02:34:50;;;;;;;12.52;9.90;;;;;;;;;;143729;585;46021;-64
2021/06/08 02:37:19;;;;;;;14.90;8.32;;;;;;;;;;143727;575;46020;-64
2021/06/08 02:39:47;;;;;;;8.63;7.40;;;;;;;;;;143723;627;47013;-64
2021/06/08 02:42:17;;;;;;;13.38;6.82;;;;;;;;;;143728;607;46012;-64
2021/06/08 02:44:46;;;;;;;14.32;9.15;;;;;;;;;;143729;574;46020;-64
2021/06/08 02:47:15;;;;;;;9.50;7.20;;;;;;;;;;143727;599;46021;-64
2021/06/08 02:49:43;;;;;;;14.93;8.50;;;;;;;;;;143727;564;46012;-65
2021/06/08 02:52:12;;;;;;;9.65;7.43;;;;;;;;;;143726;571;46012;-64
2021/06/08 02:54:40;;;;;;;13.62;7.87;;;;;;;;;;143731;620;46020;-65
2021/06/08 02:57:08;;;;;;;10.15;7.62;;;;;;;;;;143727;565;46021;-64
2021/06/08 02:59:36;;;;;;;15.38;6.87;;;;;;;;;;143725;602;46020;-64
2021/06/08 03:02:10;;;;;;;12.82;8.43;;;;;;;;;;143729;566;45021;-64
2021/06/08 03:04:55;;;;;;;23.10;9.60;;;;;;;;;;143730;582;46012;-65
2021/06/08 03:07:25;;;;;;;17.05;8.15;;;;;;;;;;143726;589;46020;-64
2021/06/08 03:10:18;;;;;;;7.85;6.97;;;;;;;;;;143726;622;46021;-64
2021/06/08 03:12:54;;;;;;;15.45;7.07;;;;;;;;;;143728;574;46012;-65
2021/06/08 03:15:25;;;;;;;17.75;7.00;;;;;;;;;;143730;584;46020;-63
2021/06/08 03:17:52;;;;;;;10.27;6.97;;;;;;;;;;143727;585;46021;-64
2021/06/08 03:20:44;;;;;;;14.93;6.95;;;;;;;;;;143725;569;46020;-65
2021/06/08 03:23:14;;;;;;;15.32;7.00;;;;;;;;;;143727;584;46012;-64
2021/06/08 03:25:43;;;;;;;12.35;6.90;;;;;;;;;;143731;609;46012;-64
2021/06/08 03:28:12;;;;;;;14.10;7.65;;;;;;;;;;143727;606;46020;-64
2021/06/08 03:30:39;;;;;;;9.75;6.60;;;;;;;;;;143726;610;46028;-63
2021/06/08 03:33:06;;;;;;;8.98;6.32;;;;;;;;;;143729;626;45021;-64
2021/06/08 03:35:35;;;;;;;11.75;6.47;;;;;;;;;;143732;586;45020;-64
2021/06/08 03:38:03;;;;;;;14.57;7.28;;;;;;;;;;143729;589;46020;-64
2021/06/08 03:40:30;;;;;;;9.43;6.60;;;;;;;;;;143726;574;46020;-64
2021/06/08 03:42:58;;;;;;;13.32;7.28;;;;;;;;;;143730;647;45020;-64
2021/06/08 03:45:25;;;;;;;11.52;6.45;;;;;;;;;;143730;583;46020;-64
2021/06/08 03:47:58;;;;;;;12.63;6.60;;;;;;;;;;143726;611;46021;-64
2021/06/08 03:50:26;;;;;;;14.75;7.32;;;;;;;;;;143727;611;46012;-64
2021/06/08 03:52:55;;;;;;;14.80;7.05;;;;;;;;;;143728;563;46012;-63
2021/06/08 03:55:24;;;;;;;10.40;6.45;;;;;;;;;;143731;583;46021;-63
2021/06/08 03:57:54;;;;;;;11.27;6.43;;;;;;;;;;143727;592;46020;-64
2021/06/08 04:00:24;;;;;;;16.80;7.78;;;;;;;;;;143728;613;46012;-64
2021/06/08 04:02:52;;;;;;;14.20;7.18;;;;;;;;;;143726;591;46013;-63
2021/06/08 04:05:19;;;;;;;11.43;7.93;;;;;;;;;;143731;566;46020;-63
2021/06/08 04:07:48;;;;;;;15.00;8.60;;;;;;;;;;143727;619;46020;-63
2021/06/08 04:10:18;;;;;;;14.60;6.85;;;;;;;;;;143726;599;46021;-63
2021/06/08 04:12:45;;;;;;;12.98;7.78;;;;;;;;;;143728;700;46012;-63
2021/06/08 04:15:13;;;;;;;10.98;7.80;;;;;;;;;;143732;617;45020;-63
2021/06/08 04:17:41;;;;;;;14.93;8.60;;;;;;;;;;143727;672;46021;-63
2021/06/08 04:20:10;;;;;;;13.68;8.88;;;;;;;;;;143725;605;46919;-63
2021/06/08 04:22:38;;;;;;;14.50;8.75;;;;;;;;;;143728;610;46012;-64
2021/06/08 04:25:07;;;;;;;22.62;10.60;;;;;;;;;;143729;621;46012;-63
2021/06/08 04:27:35;;;;;;;17.67;9.65;;;;;;;;;;143727;600;46020;-64
2021/06/08 04:30:08;;;;;;;14.85;10.02;;;;;;;;;;143725;631;46020;-63
2021/06/08 04:32:35;;;;;;;15.70;10.02;;;;;;;;;;143726;736;46012;-63
2021/06/08 04:35:06;;;;;;;21.10;11.45;;;;;;;;;;143731;636;46020;-64
2021/06/08 04:37:33;;;;;;;29.45;12.00;;;;;;;;;;143727;623;46020;-63
2021/06/08 04:40:00;;;;;;;17.08;10.18;;;;;;;;;;143724;585;46021;-64
2021/06/08 04:42:28;;;;;;;21.67;11.88;;;;;;;;;;143726;576;46012;-63
2021/06/08 04:44:55;;;;;;;18.80;10.82;;;;;;;;;;143731;604;46020;-63
2021/06/08 04:47:23;;;;;;;20.50;11.00;;;;;;;;;;143725;571;46021;-63
2021/06/08 04:49:53;;;;;;;19.50;11.70;;;;;;;;;;143728;632;46012;-63
2021/06/08 04:52:20;;;;;;;23.35;11.20;;;;;;;;;;143727;611;46012;-63
2021/06/08 04:54:47;;;;;;;24.73;10.50;;;;;;;;;;143730;601;46025;-63
2021/06/08 04:57:16;;;;;;;21.62;8.93;;;;;;;;;;143727;569;46022;-60
2021/06/08 05:00:11;;;;;;;16.60;8.93;;;;;;;;;;143726;612;46020;-60
2021/06/08 05:03:04;;;;;;;13.00;9.10;;;;;;;;;;143727;622;46012;-60
2021/06/08 05:05:32;;;;;;;13.38;7.90;;;;;;;;;;143730;599;46020;-63
2021/06/08 05:08:10;;;;;;;18.40;8.32;;;;;;;;;;143726;571;46022;-61
2021/06/08 05:10:59;;;;;;;13.13;7.62;;;;;;;;;;143726;572;46020;-63
2021/06/08 05:13:27;;;;;;;15.13;7.55;;;;;;;;;;143729;608;45022;-62
2021/06/08 05:15:56;;;;;;;15.77;9.40;;;;;;;;;;143732;587;45021;-61
2021/06/08 05:18:25;;;;;;;14.30;8.35;;;;;;;;;;143727;564;46021;-63
2021/06/08 05:20:52;;;;;;;12.95;8.57;;;;;;;;;;143726;588;46020;-62
2021/06/08 05:23:20;;;;;;;14.02;8.15;;;;;;;;;;143729;580;45021;-61
2021/06/08 05:25:51;;;;;;;21.48;9.20;;;;;;;;;;143730;579;46012;-62
2021/06/08 05:28:18;;;;;;;19.00;8.32;;;;;;;;;;143726;635;46020;-60
2021/06/08 05:30:47;;;;;;;16.25;8.13;;;;;;;;;;143724;564;46021;-61
2021/06/08 05:33:21;;;;;;;15.23;8.63;;;;;;;;;;143726;607;46012;-62
2021/06/08 05:35:52;;;;;;;16.15;8.60;;;;;;;;;;143731;610;46020;-61
2021/06/08 05:38:29;;;;;;;14.05;7.22;;;;;;;;;;143726;597;46022;-61
2021/06/08 05:40:56;;;;;;;15.85;8.88;;;;;;;;;;143726;607;46020;-61
2021/06/08 05:43:23;;;;;;;15.65;7.72;;;;;;;;;;143727;605;46012;-58
2021/06/08 05:45:50;;;;;;;18.50;9.95;;;;;;;;;;143732;596;45021;-60
2021/06/08 05:48:21;;;;;;;16.92;8.98;;;;;;;;;;143726;566;46023;-61
2021/06/08 05:50:49;;;;;;;14.55;9.85;;;;;;;;;;143726;582;46020;-60
2021/06/08 05:53:17;;;;;;;15.30;8.25;;;;;;;;;;143727;635;47012;-61
2021/06/08 05:55:48;;;;;;;17.15;10.00;;;;;;;;;;143732;580;45021;-61
2021/06/08 05:58:16;;;;;;;15.88;10.70;;;;;;;;;;143727;578;46020;-61
2021/06/08 06:00:43;;;;;;;19.80;8.88;;;;;;;;;;143727;597;46013;-60
2021/06/08 06:03:11;;;;;;;19.48;11.20;;;;;;;;;;143727;606;46014;-61
2021/06/08 06:05:39;;;;;;;14.98;9.70;;;;;;;;;;143729;575;46020;-62
2021/06/08 06:08:06;;;;;;;19.15;9.60;;;;;;;;;;143724;588;46022;-59
2021/06/08 06:10:33;;;;;;;19.40;10.43;;;;;;;;;;143726;627;46020;-61
2021/06/08 06:13:04;;;;;;;22.23;10.35;;;;;;;;;;143729;589;45020;-61
2021/06/08 06:15:33;;;;;;;14.80;10.27;;;;;;;;;;143730;592;46020;-59
2021/06/08 06:18:00;;;;;;;14.63;9.32;;;;;;;;;;143727;590;46023;-60
2021/06/08 06:20:27;;;;;;;22.00;9.60;;;;;;;;;;143724;619;46030;-60
2021/06/08 06:22:55;;;;;;;16.90;9.20;;;;;;;;;;143726;634;46013;-60
2021/06/08 06:25:22;;;;;;;16.20;9.18;;;;;;;;;;143731;571;46012;-61
2021/06/08 06:27:49;;;;;;;16.77;9.27;;;;;;;;;;143726;584;46050;-60
2021/06/08 06:30:17;;;;;;;16.00;9.13;;;;;;;;;;143726;569;46021;-60
2021/06/08 06:32:45;;;;;;;14.57;8.10;;;;;;;;;;143728;657;46012;-60
2021/06/08 06:35:13;;;;;;;15.77;8.48;;;;;;;;;;143729;667;46020;-59
2021/06/08 06:37:41;;;;;;;16.95;7.47;;;;;;;;;;143726;569;46022;-60
2021/06/08 06:40:16;;;;;;;12.98;6.60;;;;;;;;;;143726;618;46020;-60
2021/06/08 06:42:48;;;;;;;13.25;7.15;;;;;;;;;;143728;584;46012;-60
2021/06/08 06:45:17;;;;;;;17.10;6.28;;;;;;;;;;143729;607;46020;-60
2021/06/08 06:47:44;;;;;;;15.38;7.05;;;;;;;;;;143727;650;46023;-60
2021/06/08 06:50:12;;;;;;;16.30;7.00;;;;;;;;;;143726;574;46020;-61
2021/06/08 06:52:41;;;;;;;17.37;7.30;;;;;;;;;;143728;599;46013;-61
2021/06/08 06:55:09;;;;;;;13.35;6.80;;;;;;;;;;143731;581;46012;-61
2021/06/08 06:57:37;;;;;;;13.75;7.57;;;;;;;;;;143725;573;46022;-60
2021/06/08 07:00:05;;;;;;;11.20;7.28;;;;;;;;;;143725;582;46021;-61
2021/06/08 07:02:35;;;;;;;14.02;7.40;;;;;;;;;;143726;588;46020;-61
2021/06/08 07:05:03;;;;;;;12.93;7.32;;;;;;;;;;143731;618;46012;-60
2021/06/08 07:07:31;;;;;;;17.55;7.35;;;;;;;;;;143726;608;46022;-60
2021/06/08 07:09:58;;;;;;;12.30;6.12;;;;;;;;;;143724;588;46020;-61
2021/06/08 07:12:25;;;;;;;10.52;6.50;;;;;;;;;;143727;592;45911;-61
2021/06/08 07:14:52;;;;;;;15.80;7.30;;;;;;;;;;143728;580;46021;-60
2021/06/08 07:17:24;;;;;;;11.38;6.68;;;;;;;;;;143726;656;46047;-61
2021/06/08 07:19:55;;;;;;;13.60;6.20;;;;;;;;;;143726;665;46012;-59
2021/06/08 07:22:22;;;;;;;13.40;6.85;;;;;;;;;;143727;619;46013;-61
2021/06/08 07:24:51;;;;;;;13.55;6.55;;;;;;;;;;143730;638;46012;-61
2021/06/08 07:27:18;;;;;;;14.63;6.18;;;;;;;;;;143727;628;47020;-62
2021/06/08 07:29:45;;;;;;;17.58;6.82;;;;;;;;;;143723;582;48012;-61
2021/06/08 07:32:21;;;;;;;10.35;6.35;;;;;;;;;;143729;579;46012;-61
2021/06/08 07:35:10;;;;;;;14.57;5.93;;;;;;;;;;143732;629;46012;-61
2021/06/08 07:37:43;;;;;;;15.45;7.28;;;;;;;;;;143727;601;46021;-61
2021/06/08 07:40:33;;;;;;;19.25;7.47;;;;;;;;;;143728;565;46012;-62
2021/06/08 07:43:04;;;;;;;10.52;5.68;;;;;;;;;;143727;703;46012;-61
2021/06/08 07:46:00;;;;;;;14.70;6.20;;;;;;;;;;143733;588;46013;-61
2021/06/08 07:48:29;;;;;;;13.52;6.43;;;;;;;;;;143727;590;47020;-62
2021/06/08 07:50:57;;;;;;;13.38;6.68;;;;;;;;;;143725;588;46020;-61
2021/06/08 07:53:30;;;;;;;13.82;6.20;;;;;;;;;;143728;624;46021;-59
2021/06/08 07:55:57;;;;;;;10.35;5.22;;;;;;;;;;143731;629;46020;-61
2021/06/08 07:58:25;;;;;;;15.77;6.22;;;;;;;;;;143728;591;46051;-61
2021/06/08 08:00:54;;;;;;;15.30;6.82;;;;;;;;;;143727;656;46020;-63
2021/06/08 08:03:26;;;;;;;13.02;7.03;;;;;;;;;;143729;654;46012;-62
2021/06/08 08:06:13;;;;;;;11.50;7.05;;;;;;;;;;143731;664;46020;-63
2021/06/08 08:08:40;;;;;;;10.77;6.47;;;;;;;;;;143725;619;47012;-62
2021/06/08 08:11:15;;;;;;;13.32;6.43;;;;;;;;;;143724;601;47012;-60
2021/06/08 08:13:45;;;;;;;13.20;6.82;;;;;;;;;;143722;647;48014;-60
2021/06/08 08:16:14;;;;;;;15.32;7.35;;;;;;;;;;143728;600;47013;-60
2021/06/08 08:18:43;;;;;;;11.57;6.00;;;;;;;;;;143727;639;46022;-60
2021/06/08 08:21:14;;;;;;;19.95;6.97;;;;;;;;;;143727;571;46020;-60
2021/06/08 08:23:43;;;;;;;11.88;5.70;;;;;;;;;;143727;628;46012;-61
2021/06/08 08:26:11;;;;;;;11.85;5.75;;;;;;;;;;143730;579;46012;-62
2021/06/08 08:28:39;;;;;;;11.18;6.32;;;;;;;;;;143727;569;47022;-61
2021/06/08 08:31:13;;;;;;;12.85;6.62;;;;;;;;;;143726;605;46021;-60
2021/06/08 08:33:41;;;;;;;13.98;6.53;;;;;;;;;;143727;605;46012;-62
2021/06/08 08:36:08;;;;;;;13.55;7.50;;;;;;;;;;143731;679;47020;-61
2021/06/08 08:38:35;;;;;;;13.18;7.70;;;;;;;;;;143728;589;46023;-61
2021/06/08 08:41:03;;;;;;;11.43;7.12;;;;;;;;;;143728;567;46020;-61
2021/06/08 08:43:31;;;;;;;12.48;6.68;;;;;;;;;;143726;603;46012;-62
2021/06/08 08:45:58;;;;;;;12.07;5.97;;;;;;;;;;143730;615;46012;-63
2021/06/08 08:48:25;;;;;;;9.48;6.30;;;;;;;;;;143727;605;47020;-63
2021/06/08 08:50:54;;;;;;;10.23;6.05;;;;;;;;;;143725;577;46020;-62
2021/06/08 08:53:23;;;;;;;15.50;7.90;;;;;;;;;;143728;579;46012;-61
2021/06/08 08:55:50;;;;;;;11.27;6.40;;;;;;;;;;143731;597;45020;-62
2021/06/08 08:58:18;;;;;;;14.20;7.43;;;;;;;;;;143727;615;47021;-61
2021/06/08 09:00:45;;;;;;;11.18;6.03;;;;;;;;;;143725;583;46021;-60
2021/06/08 09:03:14;;;;;;;9.73;5.87;;;;;;;;;;143726;657;46020;-59
2021/06/08 09:05:42;;;;;;;14.10;6.10;;;;;;;;;;143733;613;46020;-59
2021/06/08 09:08:10;;;;;;;10.43;5.87;;;;;;;;;;143727;572;47021;-60
2021/06/08 09:10:39;;;;;;;12.30;5.35;;;;;;;;;;143729;602;46012;-60
2021/06/08 09:13:06;;;;;;;13.90;6.87;;;;;;;;;;143729;576;46012;-60
2021/06/08 09:15:34;;;;;;;16.05;6.22;;;;;;;;;;143732;612;46012;-60
2021/06/08 09:18:02;;;;;;;12.10;5.87;;;;;;;;;;143728;572;47020;-59
2021/06/08 09:20:31;;;;;;;12.93;5.55;;;;;;;;;;143727;613;46920;-60
2021/06/08 09:23:00;;;;;;;11.88;5.93;;;;;;;;;;143728;573;46021;-60
2021/06/08 09:25:43;;;;;;;16.58;6.65;;;;;;;;;;143731;615;46020;-61
2021/06/08 09:28:45;;;;;;;11.35;5.80;;;;;;;;;;143729;608;46022;-60
2021/06/08 09:31:23;;;;;;;15.73;6.70;;;;;;;;;;143728;629;46020;-60
2021/06/08 09:33:52;;;;;;;14.73;5.85;;;;;;;;;;143727;638;46014;-61
2021/06/08 09:36:28;;;;;;;19.10;5.62;;;;;;;;;;143733;600;46012;-61
2021/06/08 09:39:00;;;;;;;13.82;5.57;;;;;;;;;;143729;599;46023;-62
2021/06/08 09:41:44;;;;;;;14.82;5.72;;;;;;;;;;143728;613;46020;-61
2021/06/08 09:44:15;;;;;;;;;;;;;;;;;;143730;981;46013;-61
2021/06/08 09:46:53;;;;;;;18.37;5.55;;;;;;;;;;143741;578;46018;-62
2021/06/08 09:49:46;;;;;;;13.18;5.65;;;;;;;;;;143728;657;46052;-61
2021/06/08 09:52:13;;;;;;;26.12;16.62;;;;;;;;;;143728;571;46021;-62
2021/06/08 09:54:42;;;;;;;22.62;15.18;;;;;;;;;;143728;569;46012;-62
2021/06/08 09:57:27;;;;;;;29.45;19.12;;;;;;;;;;143731;674;46010;-63
2021/06/08 10:00:21;;;;;;;25.92;14.30;;;;;;;;;;143729;581;46023;-63
2021/06/08 10:02:48;;;;;;;22.62;14.75;;;;;;;;;;143727;607;46032;-62
2021/06/08 10:05:24;;;;;;;18.15;8.45;;;;;;;;;;143732;574;46012;-63
2021/06/08 10:07:53;;;;;;;16.90;8.07;;;;;;;;;;143732;718;46011;-63
2021/06/08 10:10:34;;;;;;;18.05;8.43;;;;;;;;;;143728;578;46046;-63
2021/06/08 10:13:14;;;;;;;15.32;7.57;;;;;;;;;;143727;590;46021;-62
2021/06/08 10:16:03;;;;;;;13.88;7.25;;;;;;;;;;143728;581;46012;-62
2021/06/08 10:18:49;;;;;;;13.27;6.45;;;;;;;;;;143732;582;46020;-61
2021/06/08 10:21:16;;;;;;;16.92;7.87;;;;;;;;;;143728;577;46022;-62
2021/06/08 10:23:43;;;;;;;11.85;5.18;;;;;;;;;;143726;571;46020;-62
2021/06/08 10:26:14;;;;;;;13.62;6.22;;;;;;;;;;143729;569;46012;-61
2021/06/08 10:28:42;;;;;;;10.10;5.40;;;;;;;;;;143732;665;46010;-61
2021/06/08 10:31:09;;;;;;;9.20;4.90;;;;;;;;;;143728;569;46023;-62
2021/06/08 10:33:37;;;;;;;13.43;6.30;;;;;;;;;;143726;597;46020;-61
2021/06/08 10:36:04;;;;;;;13.00;5.05;;;;;;;;;;143728;773;46012;-62
2021/06/08 10:38:31;;;;;;;12.35;5.32;;;;;;;;;;143731;595;46021;-61
2021/06/08 10:40:58;;;;;;;9.88;5.30;;;;;;;;;;143728;593;46022;-62
2021/06/08 10:43:28;;;;;;;8.98;5.35;;;;;;;;;;143728;586;46021;-60
2021/06/08 10:45:56;;;;;;;10.50;5.62;;;;;;;;;;143727;582;46014;-61
2021/06/08 10:48:38;;;;;;;14.23;5.97;;;;;;;;;;143731;585;46015;-61
2021/06/08 10:51:11;;;;;;;12.60;5.85;;;;;;;;;;143728;567;46022;-63
2021/06/08 10:53:42;;;;;;;9.20;5.22;;;;;;;;;;143728;660;46020;-62
2021/06/08 10:56:30;;;;;;;9.88;5.70;;;;;;;;;;143729;605;46012;-62
2021/06/08 10:58:59;;;;;;;12.80;6.22;;;;;;;;;;143733;649;46021;-60
2021/06/08 11:01:52;;;;;;;12.93;5.45;;;;;;;;;;143727;584;46052;-61
2021/06/08 11:04:28;;;;;;;10.52;5.45;;;;;;;;;;143724;572;49012;-61
2021/06/08 11:07:04;;;;;;;7.32;4.85;;;;;;;;;;143729;564;46012;-61
2021/06/08 11:09:35;;;;;;;11.38;5.07;;;;;;;;;;143733;583;46010;-61
2021/06/08 11:12:28;;;;;;;13.55;6.45;;;;;;;;;;143728;591;46022;-62
2021/06/08 11:14:56;;;;;;;12.93;6.32;;;;;;;;;;143729;573;46012;-60
2021/06/08 11:17:35;;;;;;;9.55;5.47;;;;;;;;;;143729;607;46012;-61
2021/06/08 11:20:19;;;;;;;8.48;4.40;;;;;;;;;;143733;608;46010;-61
2021/06/08 11:22:52;;;;;;;14.07;5.12;;;;;;;;;;143728;592;46023;-62
2021/06/08 11:25:43;;;;;;;12.55;5.15;;;;;;;;;;143728;592;46020;-61
2021/06/08 11:28:12;;;;;;;11.20;4.90;;;;;;;;;;143728;569;46012;-61
2021/06/08 11:30:42;;;;;;;8.73;5.10;;;;;;;;;;143728;630;48010;-61
2021/06/08 11:33:28;;;;;;;8.27;4.95;;;;;;;;;;143731;604;46022;-62
2021/06/08 11:35:55;;;;;;;10.95;5.05;;;;;;;;;;143728;585;46021;-63
2021/06/08 11:38:30;;;;;;;8.80;5.30;;;;;;;;;;143729;605;46012;-61
2021/06/08 11:41:01;;;;;;;14.27;4.90;;;;;;;;;;143733;610;46020;-63
2021/06/08 11:44:04;;;;;;;16.75;5.40;;;;;;;;;;143727;619;47021;-62
2021/06/08 11:47:05;;;;;;;11.10;5.05;;;;;;;;;;143729;576;46020;-62
2021/06/08 11:49:33;;;;;;;10.82;4.78;;;;;;;;;;143727;570;46013;-61
2021/06/08 11:52:12;;;;;;;15.27;6.15;;;;;;;;;;143731;598;46011;-62
2021/06/08 11:54:42;;;;;;;9.30;4.62;;;;;;;;;;143727;583;47020;-62
2021/06/08 11:57:14;;;;;;;12.43;5.72;;;;;;;;;;143728;586;46021;-62
2021/06/08 12:00:07;;;;;;;10.93;4.90;;;;;;;;;;143731;573;45021;-62
2021/06/08 12:02:46;;;;;;;7.82;4.62;;;;;;;;;;143732;609;46008;-62
2021/06/08 12:05:24;;;;;;;8.75;4.57;;;;;;;;;;143729;578;46022;-62
2021/06/08 12:08:03;;;;;;;9.93;5.50;;;;;;;;;;143727;600;46023;-62
2021/06/08 12:10:38;;;;;;;12.63;4.53;;;;;;;;;;143728;569;46012;-62
2021/06/08 12:13:06;;;;;;;15.48;5.20;;;;;;;;;;143734;629;45031;-62
2021/06/08 12:15:44;;;;;;;11.73;4.53;;;;;;;;;;143728;657;46046;-62
2021/06/08 12:18:23;;;;;;;13.85;5.50;;;;;;;;;;143728;580;46020;-62
2021/06/08 12:20:51;;;;;;;7.35;3.90;;;;;;;;;;143731;571;45021;-62
2021/06/08 12:23:35;;;;;;;10.65;4.50;;;;;;;;;;143733;585;46010;-62
2021/06/08 12:26:15;;;;;;;13.40;4.50;;;;;;;;;;143728;606;46022;-62
2021/06/08 12:28:44;;;;;;;8.98;4.43;;;;;;;;;;143726;580;46021;-62
2021/06/08 12:31:19;;;;;;;8.05;4.25;;;;;;;;;;143730;573;46012;-62
2021/06/08 12:33:47;;;;;;;7.47;4.65;;;;;;;;;;143731;666;46011;-62
2021/06/08 12:36:15;;;;;;;8.23;4.85;;;;;;;;;;143729;607;46023;-62
2021/06/08 12:38:47;;;;;;;10.75;4.70;;;;;;;;;;143726;572;46020;-62
2021/06/08 12:41:14;;;;;;;7.97;4.20;;;;;;;;;;143731;621;46020;-61
2021/06/08 12:43:50;;;;;;;10.02;4.68;;;;;;;;;;143732;582;46010;-61
2021/06/08 12:46:36;;;;;;;10.52;4.78;;;;;;;;;;143728;577;46022;-62
2021/06/08 12:49:14;;;;;;;8.73;4.32;;;;;;;;;;143728;570;46021;-62
2021/06/08 12:52:18;;;;;;;6.50;4.25;;;;;;;;;;143728;599;46012;-62
2021/06/08 12:54:51;;;;;;;7.05;4.43;;;;;;;;;;143732;604;46010;-62
2021/06/08 12:57:31;;;;;;;10.13;4.70;;;;;;;;;;143729;646;46022;-62
2021/06/08 13:00:07;;;;;;;7.75;4.03;;;;;;;;;;143728;585;46020;-62
2021/06/08 13:02:35;;;;;;;7.55;4.40;;;;;;;;;;143731;586;45025;-62
2021/06/08 13:05:06;;;;;;;8.50;3.85;;;;;;;;;;143733;583;46010;-63
2021/06/08 13:07:36;;;;;;;6.18;3.70;;;;;;;;;;143728;647;46023;-63
2021/06/08 13:10:14;;;;;;;8.55;4.07;;;;;;;;;;143729;582;46012;-64
2021/06/08 13:12:46;;;;;;;6.32;4.12;;;;;;;;;;143728;606;46020;-64
2021/06/08 13:15:15;;;;;;;8.85;4.07;;;;;;;;;;143732;627;46010;-64
2021/06/08 13:17:42;;;;;;;8.65;4.20;;;;;;;;;;143729;576;46020;-64
2021/06/08 13:20:30;;;;;;;6.55;4.10;;;;;;;;;;143728;599;46021;-64
2021/06/08 13:22:58;;;;;;;6.62;4.00;;;;;;;;;;143729;588;46012;-64
2021/06/08 13:25:26;;;;;;;7.70;4.30;;;;;;;;;;143734;601;45020;-64
2021/06/08 13:27:55;;;;;;;7.07;4.00;;;;;;;;;;143728;585;46023;-64
2021/06/08 13:30:33;;;;;;;5.62;4.05;;;;;;;;;;143729;603;46012;-64
2021/06/08 13:33:06;;;;;;;8.02;4.45;;;;;;;;;;143728;564;46020;-64
2021/06/08 13:35:34;;;;;;;6.93;3.90;;;;;;;;;;143733;567;46021;-64
2021/06/08 13:38:09;;;;;;;8.15;4.12;;;;;;;;;;143729;579;46020;-64
2021/06/08 13:40:40;;;;;;;5.93;4.30;;;;;;;;;;143728;591;46021;-63
2021/06/08 13:43:15;;;;;;;9.82;4.30;;;;;;;;;;143727;679;46012;-64
2021/06/08 13:45:48;;;;;;;7.65;4.28;;;;;;;;;;143731;627;46010;-64
2021/06/08 13:48:31;;;;;;;7.53;4.87;;;;;;;;;;143728;593;46022;-64
2021/06/08 13:51:20;;;;;;;7.03;4.30;;;;;;;;;;143726;580;46012;-64
2021/06/08 13:54:13;;;;;;;8.95;4.53;;;;;;;;;;143727;579;46012;-65
2021/06/08 13:56:49;;;;;;;8.88;4.68;;;;;;;;;;143731;578;46020;-65
2021/06/08 14:02:06;;;;;;;10.30;5.15;;;;;;;;;;143726;593;46020;-64
2021/06/08 14:04:47;;;;;;;10.45;4.97;;;;;;;;;;143727;586;46021;-64
2021/06/08 14:07:16;;;;;;;12.27;4.70;;;;;;;;;;143729;664;46010;-65
2021/06/08 14:09:47;;;;;;;6.85;4.50;;;;;;;;;;143726;659;46022;-65
2021/06/08 14:12:14;;;;;;;8.73;4.55;;;;;;;;;;143724;610;46021;-65
2021/06/08 14:14:41;;;;;;;6.55;4.60;;;;;;;;;;143726;566;46012;-65
2021/06/08 14:17:19;;;;;;;7.60;4.78;;;;;;;;;;143731;582;46010;-65
2021/06/08 14:19:49;;;;;;;7.75;4.43;;;;;;;;;;143727;602;46021;-64
2021/06/08 14:22:17;;;;;;;9.30;4.80;;;;;;;;;;143726;578;46020;-64
2021/06/08 14:24:45;;;;;;;10.43;4.75;;;;;;;;;;143728;682;46012;-65
2021/06/08 14:27:18;;;;;;;7.68;4.87;;;;;;;;;;143729;565;46010;-65
2021/06/08 14:29:46;;;;;;;6.82;4.47;;;;;;;;;;143727;571;46022;-65
2021/06/08 14:32:13;;;;;;;8.07;5.30;;;;;;;;;;143725;612;46020;-65
2021/06/08 14:34:40;;;;;;;8.32;4.85;;;;;;;;;;143727;585;46012;-64
2021/06/08 14:37:07;;;;;;;10.50;5.00;;;;;;;;;;143729;594;46010;-65
2021/06/08 14:39:34;;;;;;;10.80;4.80;;;;;;;;;;143724;659;46022;-65
2021/06/08 14:42:01;;;;;;;9.60;5.47;;;;;;;;;;143725;578;46021;-65
2021/06/08 14:44:28;;;;;;;7.30;4.35;;;;;;;;;;143728;606;46012;-65
2021/06/08 14:46:57;;;;;;;7.53;4.72;;;;;;;;;;143730;585;46020;-64
2021/06/08 14:49:23;;;;;;;6.85;4.50;;;;;;;;;;143726;583;46023;-65
2021/06/08 14:51:51;;;;;;;12.88;5.15;;;;;;;;;;143722;619;47012;-65
2021/06/08 14:54:18;;;;;;;10.60;5.37;;;;;;;;;;143728;571;46012;-65
2021/06/08 14:56:45;;;;;;;8.75;4.90;;;;;;;;;;143731;614;46021;-65
2021/06/08 14:59:12;;;;;;;9.48;4.95;;;;;;;;;;143727;569;46020;-65
2021/06/08 15:01:40;;;;;;;7.78;4.50;;;;;;;;;;143726;580;46020;-64
2021/06/08 15:04:06;;;;;;;8.85;4.90;;;;;;;;;;143725;683;46021;-64